Time;durP1;ratioP1;P1;durP2;ratioP2;P2;SDS_P1;SDS_P2;PMS_P1;PMS_P2;Temp;Humidity;BMP_temperature;BMP_pressure;BME280_temperature;BME280_humidity;BME280_pressure;Samples;Min_cycle;Max_cycle;Signal;HPM_P1;HPM_P2
2023/06/30 00:01:57;;;;;;;0.47;0.47;;;;;;;;;;4936801;29;20042;-61
2023/06/30 00:04:23;;;;;;;1.77;0.55;;;;;;;;;;4937134;29;20028;-63
2023/06/30 00:06:51;;;;;;;0.50;0.50;;;;;;;;;;4936809;29;20429;-64
2023/06/30 00:09:20;;;;;;;0.43;0.38;;;;;;;;;;4936710;29;20039;-62
2023/06/30 00:11:49;;;;;;;0.43;0.43;;;;;;;;;;4936985;29;20039;-65
2023/06/30 00:14:15;;;;;;;0.63;0.35;;;;;;;;;;4936535;29;20027;-65
2023/06/30 00:16:40;;;;;;;1.23;0.63;;;;;;;;;;4936844;29;20027;-64
2023/06/30 00:19:06;;;;;;;0.52;0.50;;;;;;;;;;4936784;29;20354;-65
2023/06/30 00:21:32;;;;;;;1.27;0.70;;;;;;;;;;4936726;29;20031;-65
2023/06/30 00:24:01;;;;;;;0.85;0.50;;;;;;;;;;4936427;29;20437;-64
2023/06/30 00:26:29;;;;;;;1.10;0.50;;;;;;;;;;4936574;29;20059;-62
2023/06/30 00:28:55;;;;;;;0.40;0.40;;;;;;;;;;4919313;29;20493;-64
2023/06/30 00:31:20;;;;;;;0.50;0.50;;;;;;;;;;4936471;29;20028;-61
2023/06/30 00:33:46;;;;;;;0.57;0.40;;;;;;;;;;4919219;29;20472;-63
2023/06/30 00:36:11;;;;;;;1.02;0.50;;;;;;;;;;4936488;29;20031;-63
2023/06/30 00:38:37;;;;;;;0.47;0.47;;;;;;;;;;4936208;29;20024;-61
2023/06/30 00:41:03;;;;;;;1.08;0.57;;;;;;;;;;4936394;29;20039;-62
2023/06/30 00:43:28;;;;;;;0.50;0.50;;;;;;;;;;4936116;29;20473;-60
2023/06/30 00:45:54;;;;;;;2.20;0.60;;;;;;;;;;4936074;29;20040;-61
2023/06/30 00:48:19;;;;;;;0.73;0.52;;;;;;;;;;4935860;29;20050;-61
2023/06/30 00:50:45;;;;;;;0.50;0.50;;;;;;;;;;4936236;29;20428;-61
2023/06/30 00:53:12;;;;;;;0.45;0.45;;;;;;;;;;4935934;29;20389;-61
2023/06/30 00:55:40;;;;;;;0.35;0.35;;;;;;;;;;4936051;29;20035;-61
2023/06/30 00:58:05;;;;;;;0.35;0.32;;;;;;;;;;4936100;29;20027;-61
2023/06/30 01:00:31;;;;;;;0.52;0.50;;;;;;;;;;4935838;29;20503;-61
2023/06/30 01:03:11;;;;;;;0.28;0.22;;;;;;;;;;4935793;29;20087;-61
2023/06/30 01:06:11;;;;;;;0.32;0.32;;;;;;;;;;4935781;29;20119;-63
2023/06/30 01:08:54;;;;;;;0.30;0.30;;;;;;;;;;4935738;29;20086;-61
2023/06/30 01:11:20;;;;;;;0.52;0.30;;;;;;;;;;4935760;29;20385;-63
2023/06/30 01:13:47;;;;;;;0.65;0.30;;;;;;;;;;4935622;29;20028;-61
2023/06/30 01:16:14;;;;;;;0.70;0.43;;;;;;;;;;4935619;29;20111;-64
2023/06/30 01:18:42;;;;;;;0.32;0.32;;;;;;;;;;4936002;29;20495;-62
2023/06/30 01:21:13;;;;;;;0.38;0.38;;;;;;;;;;4935502;29;20035;-65
2023/06/30 01:23:45;;;;;;;0.60;0.40;;;;;;;;;;4936082;29;20055;-61
2023/06/30 01:26:11;;;;;;;0.30;0.30;;;;;;;;;;4935487;29;20032;-66
2023/06/30 01:28:37;;;;;;;0.40;0.40;;;;;;;;;;4935421;29;20114;-66
2023/06/30 01:31:08;;;;;;;0.32;0.32;;;;;;;;;;4935413;29;20070;-66
2023/06/30 01:33:35;;;;;;;0.50;0.50;;;;;;;;;;4935492;29;20031;-66
2023/06/30 01:36:02;;;;;;;1.67;0.50;;;;;;;;;;4935332;29;20031;-65
2023/06/30 01:38:27;;;;;;;0.85;0.35;;;;;;;;;;4935141;29;20106;-65
2023/06/30 01:40:54;;;;;;;0.93;0.60;;;;;;;;;;4935318;29;20441;-64
2023/06/30 01:43:20;;;;;;;0.65;0.40;;;;;;;;;;4935261;29;20032;-65
2023/06/30 01:45:45;;;;;;;0.50;0.50;;;;;;;;;;4935365;29;20346;-65
2023/06/30 01:48:11;;;;;;;0.55;0.52;;;;;;;;;;4934872;29;20636;-65
2023/06/30 01:50:38;;;;;;;0.60;0.57;;;;;;;;;;4935207;29;20024;-63
2023/06/30 01:53:04;;;;;;;0.40;0.40;;;;;;;;;;4935127;29;20032;-62
2023/06/30 01:55:29;;;;;;;0.35;0.35;;;;;;;;;;4935081;29;20035;-65
2023/06/30 01:57:55;;;;;;;0.40;0.40;;;;;;;;;;4935231;29;20030;-66
2023/06/30 02:00:21;;;;;;;1.85;0.40;;;;;;;;;;4935391;29;20034;-63
2023/06/30 02:02:46;;;;;;;0.43;0.40;;;;;;;;;;4935399;29;20354;-63
2023/06/30 02:05:12;;;;;;;0.40;0.40;;;;;;;;;;4935161;29;20054;-64
2023/06/30 02:07:38;;;;;;;0.73;0.43;;;;;;;;;;4935140;29;20083;-65
2023/06/30 02:10:04;;;;;;;0.77;0.60;;;;;;;;;;4935086;29;20024;-63
2023/06/30 02:12:30;;;;;;;0.35;0.35;;;;;;;;;;4935110;29;20437;-65
2023/06/30 02:14:55;;;;;;;0.47;0.40;;;;;;;;;;4934935;29;20032;-62
2023/06/30 02:17:32;;;;;;;0.45;0.40;;;;;;;;;;4934996;29;20020;-64
2023/06/30 02:19:59;;;;;;;0.47;0.47;;;;;;;;;;4935258;29;20429;-64
2023/06/30 02:22:24;;;;;;;0.20;0.20;;;;;;;;;;4934970;29;20028;-65
2023/06/30 02:24:50;;;;;;;0.60;0.30;;;;;;;;;;4935237;29;20034;-66
2023/06/30 02:27:18;;;;;;;0.60;0.50;;;;;;;;;;4935226;29;20106;-64
2023/06/30 02:29:44;;;;;;;0.40;0.40;;;;;;;;;;4934827;29;20038;-64
2023/06/30 02:32:09;;;;;;;1.48;0.40;;;;;;;;;;4934892;29;20023;-64
2023/06/30 02:34:35;;;;;;;0.63;0.45;;;;;;;;;;4934820;29;20172;-65
2023/06/30 02:37:01;;;;;;;1.05;0.43;;;;;;;;;;4934812;29;20031;-63
2023/06/30 02:39:26;;;;;;;0.30;0.30;;;;;;;;;;4934746;29;20031;-66
2023/06/30 02:41:52;;;;;;;0.35;0.35;;;;;;;;;;4934951;29;20042;-66
2023/06/30 02:44:17;;;;;;;0.30;0.30;;;;;;;;;;4935024;29;20035;-65
2023/06/30 02:46:43;;;;;;;0.40;0.40;;;;;;;;;;4934617;29;20031;-65
2023/06/30 02:49:09;;;;;;;0.70;0.70;;;;;;;;;;4935016;29;20027;-65
2023/06/30 02:51:34;;;;;;;0.50;0.40;;;;;;;;;;4938445;29;20083;-62
2023/06/30 02:54:00;;;;;;;0.32;0.32;;;;;;;;;;4938240;29;20024;-61
2023/06/30 02:56:25;;;;;;;0.40;0.40;;;;;;;;;;4937995;29;20112;-64
2023/06/30 02:58:51;;;;;;;0.43;0.40;;;;;;;;;;4938050;29;20093;-61
2023/06/30 03:01:17;;;;;;;0.40;0.40;;;;;;;;;;4937947;29;20087;-61
2023/06/30 03:03:42;;;;;;;0.35;0.30;;;;;;;;;;4937933;29;20457;-61
2023/06/30 03:06:08;;;;;;;0.70;0.47;;;;;;;;;;4937909;29;20115;-62
2023/06/30 03:08:33;;;;;;;0.40;0.40;;;;;;;;;;4937790;29;20122;-64
2023/06/30 03:10:59;;;;;;;0.35;0.35;;;;;;;;;;4937812;29;20107;-64
2023/06/30 03:13:25;;;;;;;0.50;0.50;;;;;;;;;;4937713;29;20032;-61
2023/06/30 03:15:50;;;;;;;0.22;0.22;;;;;;;;;;4937865;29;20039;-64
2023/06/30 03:18:16;;;;;;;0.47;0.47;;;;;;;;;;4937918;29;20416;-61
2023/06/30 03:20:41;;;;;;;0.40;0.40;;;;;;;;;;4937851;29;20497;-65
2023/06/30 03:23:07;;;;;;;0.22;0.22;;;;;;;;;;4937554;29;20032;-61
2023/06/30 03:25:33;;;;;;;0.20;0.20;;;;;;;;;;4937767;29;20044;-61
2023/06/30 03:27:58;;;;;;;0.55;0.30;;;;;;;;;;4937431;29;20503;-61
2023/06/30 03:30:23;;;;;;;0.55;0.40;;;;;;;;;;4937649;29;20040;-64
2023/06/30 03:32:49;;;;;;;0.70;0.43;;;;;;;;;;4937628;29;20032;-65
2023/06/30 03:35:15;;;;;;;0.35;0.35;;;;;;;;;;4937271;29;20528;-66
2023/06/30 03:37:40;;;;;;;0.50;0.50;;;;;;;;;;4937240;29;20028;-65
2023/06/30 03:40:06;;;;;;;0.38;0.38;;;;;;;;;;4937492;29;20032;-65
2023/06/30 03:42:32;;;;;;;2.70;0.35;;;;;;;;;;4937513;29;20438;-64
2023/06/30 03:44:59;;;;;;;0.90;0.45;;;;;;;;;;4937072;29;20066;-65
2023/06/30 03:47:24;;;;;;;0.32;0.32;;;;;;;;;;4936925;29;20469;-65
2023/06/30 03:49:50;;;;;;;1.48;0.40;;;;;;;;;;4937074;29;20028;-64
2023/06/30 03:52:15;;;;;;;0.40;0.40;;;;;;;;;;4937244;29;20020;-64
2023/06/30 03:54:42;;;;;;;0.43;0.43;;;;;;;;;;4937034;29;20039;-63
2023/06/30 03:57:08;;;;;;;0.50;0.50;;;;;;;;;;4936853;29;20118;-61
2023/06/30 03:59:33;;;;;;;0.70;0.45;;;;;;;;;;4936911;29;20111;-65
2023/06/30 04:01:59;;;;;;;0.45;0.45;;;;;;;;;;4936474;29;20028;-65
2023/06/30 04:04:24;;;;;;;0.30;0.30;;;;;;;;;;4937147;29;20028;-63
2023/06/30 04:06:50;;;;;;;0.70;0.32;;;;;;;;;;4936704;29;20035;-64
2023/06/30 04:09:16;;;;;;;0.30;0.30;;;;;;;;;;4936994;29;20107;-61
2023/06/30 04:11:41;;;;;;;1.75;0.30;;;;;;;;;;4936951;29;20477;-60
2023/06/30 04:14:07;;;;;;;0.35;0.35;;;;;;;;;;4936754;29;20512;-65
2023/06/30 04:16:33;;;;;;;0.30;0.30;;;;;;;;;;4936778;29;20491;-61
2023/06/30 04:18:58;;;;;;;0.63;0.52;;;;;;;;;;4936579;29;20494;-61
2023/06/30 04:21:24;;;;;;;0.47;0.43;;;;;;;;;;4936445;29;20024;-65
2023/06/30 04:23:49;;;;;;;0.38;0.38;;;;;;;;;;4936391;29;20063;-67
2023/06/30 04:26:18;;;;;;;0.50;0.40;;;;;;;;;;4936412;29;20035;-67
2023/06/30 04:28:45;;;;;;;0.45;0.40;;;;;;;;;;4936273;29;20111;-65
2023/06/30 04:31:10;;;;;;;0.50;0.50;;;;;;;;;;4936622;29;20055;-64
2023/06/30 04:33:36;;;;;;;0.50;0.50;;;;;;;;;;4936328;29;20493;-67
2023/06/30 04:36:01;;;;;;;0.55;0.55;;;;;;;;;;4936399;29;20036;-66
2023/06/30 04:38:27;;;;;;;1.23;0.35;;;;;;;;;;4936491;29;20477;-64
2023/06/30 04:40:53;;;;;;;0.50;0.50;;;;;;;;;;4936113;29;20039;-67
2023/06/30 04:43:19;;;;;;;0.40;0.40;;;;;;;;;;4936145;29;20024;-65
2023/06/30 04:45:45;;;;;;;0.80;0.47;;;;;;;;;;4936359;29;20032;-67
2023/06/30 04:48:10;;;;;;;0.30;0.30;;;;;;;;;;4935844;29;20043;-62
2023/06/30 04:50:36;;;;;;;0.38;0.38;;;;;;;;;;4936270;29;20028;-62
2023/06/30 04:53:02;;;;;;;0.45;0.40;;;;;;;;;;4935973;29;20062;-66
2023/06/30 04:55:28;;;;;;;0.68;0.45;;;;;;;;;;4919063;29;20457;-66
2023/06/30 04:57:56;;;;;;;0.38;0.38;;;;;;;;;;4936202;29;20055;-65
2023/06/30 05:00:22;;;;;;;0.45;0.43;;;;;;;;;;4935797;29;20031;-66
2023/06/30 05:02:49;;;;;;;0.30;0.30;;;;;;;;;;4935783;29;20094;-67
2023/06/30 05:05:15;;;;;;;1.17;0.30;;;;;;;;;;4935774;29;20028;-61
2023/06/30 05:07:41;;;;;;;0.40;0.40;;;;;;;;;;4935976;29;20095;-64
2023/06/30 05:10:07;;;;;;;0.40;0.40;;;;;;;;;;4935701;29;20485;-64
2023/06/30 05:12:33;;;;;;;0.40;0.40;;;;;;;;;;4934913;29;20039;-64
2023/06/30 05:14:58;;;;;;;0.45;0.43;;;;;;;;;;4935803;29;20028;-63
2023/06/30 05:17:24;;;;;;;0.47;0.45;;;;;;;;;;4935459;29;20110;-66
2023/06/30 05:19:49;;;;;;;0.40;0.40;;;;;;;;;;4935573;29;20031;-66
2023/06/30 05:22:15;;;;;;;0.47;0.47;;;;;;;;;;4935779;29;20036;-67
2023/06/30 05:24:41;;;;;;;0.50;0.50;;;;;;;;;;4935539;29;20393;-62
2023/06/30 05:27:10;;;;;;;0.47;0.45;;;;;;;;;;4935503;29;20031;-66
2023/06/30 05:29:35;;;;;;;0.52;0.43;;;;;;;;;;4935498;29;20024;-66
2023/06/30 05:32:01;;;;;;;0.82;0.70;;;;;;;;;;4935501;29;20028;-63
2023/06/30 05:34:26;;;;;;;1.10;0.63;;;;;;;;;;4935296;29;20039;-62
2023/06/30 05:36:52;;;;;;;0.50;0.50;;;;;;;;;;4935349;29;20035;-65
2023/06/30 05:39:18;;;;;;;0.70;0.70;;;;;;;;;;4935284;29;20051;-61
2023/06/30 05:41:43;;;;;;;0.50;0.50;;;;;;;;;;4935293;29;20027;-65
2023/06/30 05:44:09;;;;;;;0.68;0.60;;;;;;;;;;4918270;29;20067;-65
2023/06/30 05:46:38;;;;;;;0.40;0.40;;;;;;;;;;4935268;29;20027;-63
2023/06/30 05:49:05;;;;;;;0.55;0.55;;;;;;;;;;4935244;29;20031;-66
2023/06/30 05:51:33;;;;;;;0.47;0.47;;;;;;;;;;4935459;29;20228;-65
2023/06/30 05:53:59;;;;;;;0.93;0.47;;;;;;;;;;4918174;29;20024;-61
2023/06/30 05:56:24;;;;;;;0.50;0.50;;;;;;;;;;4935121;29;20031;-65
2023/06/30 05:58:50;;;;;;;0.63;0.63;;;;;;;;;;4935397;29;20029;-65
2023/06/30 06:01:16;;;;;;;0.63;0.60;;;;;;;;;;4935052;29;20054;-65
2023/06/30 06:03:42;;;;;;;0.40;0.40;;;;;;;;;;4935152;29;20486;-63
2023/06/30 06:06:08;;;;;;;0.40;0.40;;;;;;;;;;4935381;29;20036;-66
2023/06/30 06:08:34;;;;;;;0.60;0.50;;;;;;;;;;4935333;29;20126;-64
2023/06/30 06:11:00;;;;;;;1.52;0.57;;;;;;;;;;4935071;29;20047;-62
2023/06/30 06:13:33;;;;;;;0.47;0.47;;;;;;;;;;4934997;29;20027;-65
2023/06/30 06:16:00;;;;;;;0.55;0.55;;;;;;;;;;4934967;29;20082;-65
2023/06/30 06:18:25;;;;;;;0.57;0.50;;;;;;;;;;4934993;29;20115;-63
2023/06/30 06:20:51;;;;;;;0.50;0.50;;;;;;;;;;4917950;29;20031;-65
2023/06/30 06:23:17;;;;;;;0.57;0.57;;;;;;;;;;4935095;29;20039;-62
2023/06/30 06:25:42;;;;;;;0.77;0.40;;;;;;;;;;4921739;29;20058;-65
2023/06/30 06:28:08;;;;;;;0.55;0.50;;;;;;;;;;4938833;29;20114;-67
2023/06/30 06:30:34;;;;;;;0.75;0.50;;;;;;;;;;4938451;29;20378;-64
2023/06/30 06:32:59;;;;;;;0.68;0.47;;;;;;;;;;4938487;29;20020;-66
2023/06/30 06:35:25;;;;;;;0.55;0.55;;;;;;;;;;4938598;29;20032;-65
2023/06/30 06:37:50;;;;;;;0.93;0.55;;;;;;;;;;4938600;29;20384;-63
2023/06/30 06:40:16;;;;;;;0.50;0.50;;;;;;;;;;4938422;29;20036;-64
2023/06/30 06:42:42;;;;;;;0.60;0.60;;;;;;;;;;4938306;29;20028;-67
2023/06/30 06:45:07;;;;;;;0.60;0.60;;;;;;;;;;4921194;29;20082;-63
2023/06/30 06:48:18;;;;;;;0.55;0.55;;;;;;;;;;4921103;29;20075;-65
2023/06/30 06:50:45;;;;;;;0.52;0.52;;;;;;;;;;4860502;29;20168;-62
2023/06/30 06:53:17;;;;;;;0.35;0.35;;;;;;;;;;4858945;29;20026;-64
2023/06/30 06:55:42;;;;;;;0.45;0.45;;;;;;;;;;4893822;29;20071;-62
2023/06/30 06:58:08;;;;;;;0.45;0.45;;;;;;;;;;4909626;29;20444;-65
2023/06/30 07:00:34;;;;;;;0.70;0.60;;;;;;;;;;4927421;29;20414;-62
2023/06/30 07:02:59;;;;;;;0.32;0.32;;;;;;;;;;4926554;29;20028;-62
2023/06/30 07:05:25;;;;;;;0.52;0.50;;;;;;;;;;4924908;29;20107;-62
2023/06/30 07:07:50;;;;;;;0.43;0.43;;;;;;;;;;4910324;29;20027;-63
2023/06/30 07:10:17;;;;;;;0.50;0.50;;;;;;;;;;4927298;29;20032;-66
2023/06/30 07:12:42;;;;;;;0.60;0.60;;;;;;;;;;4927024;29;20024;-65
2023/06/30 07:15:10;;;;;;;1.25;0.68;;;;;;;;;;4930598;29;20381;-65
2023/06/30 07:17:35;;;;;;;0.60;0.60;;;;;;;;;;4925788;29;20024;-64
2023/06/30 07:20:01;;;;;;;0.60;0.55;;;;;;;;;;4921601;29;20019;-62
2023/06/30 07:22:27;;;;;;;0.50;0.50;;;;;;;;;;4918030;29;20382;-64
2023/06/30 07:24:52;;;;;;;0.60;0.60;;;;;;;;;;4918506;29;20056;-64
2023/06/30 07:27:18;;;;;;;0.60;0.50;;;;;;;;;;4917019;29;20040;-64
2023/06/30 07:29:43;;;;;;;0.43;0.43;;;;;;;;;;4927465;29;20039;-67
2023/06/30 07:32:09;;;;;;;0.60;0.60;;;;;;;;;;4926814;29;20024;-67
2023/06/30 07:34:34;;;;;;;0.50;0.50;;;;;;;;;;4926339;29;20036;-66
2023/06/30 07:37:00;;;;;;;0.50;0.50;;;;;;;;;;4921007;29;20078;-67
2023/06/30 07:39:26;;;;;;;1.42;0.73;;;;;;;;;;4925249;29;20477;-65
2023/06/30 07:41:52;;;;;;;0.52;0.52;;;;;;;;;;4927075;29;20047;-65
2023/06/30 07:44:19;;;;;;;2.53;0.65;;;;;;;;;;4925631;29;20877;-64
2023/06/30 07:46:45;;;;;;;0.57;0.57;;;;;;;;;;4924944;29;20110;-61
2023/06/30 07:49:10;;;;;;;0.50;0.50;;;;;;;;;;4924610;29;20103;-65
2023/06/30 07:51:36;;;;;;;0.90;0.80;;;;;;;;;;4925814;29;20038;-62
2023/06/30 07:54:02;;;;;;;0.50;0.50;;;;;;;;;;4922490;29;20027;-66
2023/06/30 07:56:27;;;;;;;0.47;0.47;;;;;;;;;;4925455;29;20115;-66
2023/06/30 07:58:53;;;;;;;0.50;0.50;;;;;;;;;;4925470;29;20020;-67
2023/06/30 08:01:18;;;;;;;0.50;0.50;;;;;;;;;;4924510;29;20028;-61
2023/06/30 08:03:44;;;;;;;0.55;0.55;;;;;;;;;;4920691;29;20023;-61
2023/06/30 08:06:09;;;;;;;0.93;0.70;;;;;;;;;;4917367;29;20072;-62
2023/06/30 08:08:35;;;;;;;0.50;0.50;;;;;;;;;;4917397;29;20076;-65
2023/06/30 08:11:00;;;;;;;1.90;0.73;;;;;;;;;;4917106;29;20083;-63
2023/06/30 08:13:26;;;;;;;0.60;0.60;;;;;;;;;;4921168;29;20070;-62
2023/06/30 08:15:52;;;;;;;2.15;0.57;;;;;;;;;;4917622;29;20036;-67
2023/06/30 08:18:17;;;;;;;6.53;2.75;;;;;;;;;;4926328;29;20179;-65
2023/06/30 08:20:43;;;;;;;5.13;2.50;;;;;;;;;;4936502;29;20429;-65
2023/06/30 08:23:12;;;;;;;5.15;2.45;;;;;;;;;;4936496;29;20043;-62
2023/06/30 08:25:37;;;;;;;3.00;2.28;;;;;;;;;;4936745;29;20076;-66
2023/06/30 08:28:03;;;;;;;3.65;2.65;;;;;;;;;;4926931;29;20513;-64
2023/06/30 08:30:28;;;;;;;3.63;2.50;;;;;;;;;;4911401;29;20172;-62
2023/06/30 08:32:54;;;;;;;3.78;2.50;;;;;;;;;;4921625;29;20043;-61
2023/06/30 08:35:20;;;;;;;3.72;2.40;;;;;;;;;;4925207;29;20473;-61
2023/06/30 08:37:46;;;;;;;10.57;2.83;;;;;;;;;;4917456;29;20028;-62
2023/06/30 08:40:12;;;;;;;5.47;2.60;;;;;;;;;;4916322;29;20060;-62
2023/06/30 08:42:43;;;;;;;5.45;2.50;;;;;;;;;;4930656;29;20028;-64
2023/06/30 08:45:12;;;;;;;5.07;2.40;;;;;;;;;;4934341;29;20043;-63
2023/06/30 08:47:38;;;;;;;4.05;2.90;;;;;;;;;;4935870;29;20492;-62
2023/06/30 08:50:06;;;;;;;2.90;2.53;;;;;;;;;;4936290;29;20039;-63
2023/06/30 08:52:32;;;;;;;2.85;2.20;;;;;;;;;;4936146;29;20094;-61
2023/06/30 08:55:01;;;;;;;5.85;2.60;;;;;;;;;;4929091;29;20123;-62
2023/06/30 08:57:27;;;;;;;5.32;2.97;;;;;;;;;;4917169;29;20175;-64
2023/06/30 08:59:52;;;;;;;2.50;2.30;;;;;;;;;;4917031;29;20434;-63
2023/06/30 09:02:19;;;;;;;7.18;2.65;;;;;;;;;;4916803;29;20493;-61
2023/06/30 09:04:45;;;;;;;3.42;2.50;;;;;;;;;;4916321;29;20534;-63
2023/06/30 09:07:21;;;;;;;3.75;2.58;;;;;;;;;;4916590;29;20036;-65
2023/06/30 09:09:47;;;;;;;2.92;2.22;;;;;;;;;;4915544;29;20051;-64
2023/06/30 09:12:14;;;;;;;4.25;2.45;;;;;;;;;;4916070;29;20481;-63
2023/06/30 09:14:42;;;;;;;2.75;2.30;;;;;;;;;;4916197;29;20429;-65
2023/06/30 09:17:08;;;;;;;3.20;2.47;;;;;;;;;;4915381;29;20111;-61
2023/06/30 09:19:35;;;;;;;3.20;2.33;;;;;;;;;;4915112;29;20136;-62
2023/06/30 09:22:02;;;;;;;2.45;2.22;;;;;;;;;;4914493;29;20055;-61
2023/06/30 09:24:28;;;;;;;3.53;2.47;;;;;;;;;;4915336;29;20092;-62
2023/06/30 09:26:55;;;;;;;3.00;2.60;;;;;;;;;;4914415;29;20059;-63
2023/06/30 09:29:23;;;;;;;4.07;2.47;;;;;;;;;;4915617;29;20466;-65
2023/06/30 09:31:52;;;;;;;3.42;2.63;;;;;;;;;;4916528;29;20025;-65
2023/06/30 09:34:21;;;;;;;2.85;2.33;;;;;;;;;;4916511;29;20032;-62
2023/06/30 09:36:51;;;;;;;3.10;2.23;;;;;;;;;;4916387;29;20056;-62
2023/06/30 09:39:18;;;;;;;6.53;2.63;;;;;;;;;;4916658;29;20036;-61
2023/06/30 09:41:45;;;;;;;3.08;2.30;;;;;;;;;;4916119;29;20060;-61
2023/06/30 09:44:12;;;;;;;3.53;2.40;;;;;;;;;;4916309;29;20532;-62
2023/06/30 09:46:53;;;;;;;3.03;2.72;;;;;;;;;;4916405;29;20043;-61
2023/06/30 09:49:23;;;;;;;4.93;2.22;;;;;;;;;;4916482;29;20111;-61
2023/06/30 09:51:49;;;;;;;5.32;2.60;;;;;;;;;;4916127;29;20545;-61
2023/06/30 09:54:17;;;;;;;2.92;2.47;;;;;;;;;;4915281;29;20036;-60
2023/06/30 09:56:45;;;;;;;3.30;2.58;;;;;;;;;;4916276;29;20119;-61
2023/06/30 09:59:11;;;;;;;3.40;2.47;;;;;;;;;;4917829;29;20034;-60
2023/06/30 10:01:37;;;;;;;2.85;2.50;;;;;;;;;;4919964;29;20040;-62
2023/06/30 10:04:03;;;;;;;2.42;2.22;;;;;;;;;;4920287;29;20039;-61
2023/06/30 10:06:28;;;;;;;3.40;2.40;;;;;;;;;;4920223;29;20082;-64
2023/06/30 10:08:57;;;;;;;3.50;2.40;;;;;;;;;;4920154;29;20405;-62
2023/06/30 10:11:23;;;;;;;4.10;2.50;;;;;;;;;;4920043;29;20032;-60
2023/06/30 10:13:54;;;;;;;3.25;2.40;;;;;;;;;;4919830;29;20060;-60
2023/06/30 10:16:21;;;;;;;3.38;2.45;;;;;;;;;;4920000;29;20110;-60
2023/06/30 10:18:49;;;;;;;2.85;2.53;;;;;;;;;;4919759;29;20099;-60
2023/06/30 10:21:14;;;;;;;2.60;2.40;;;;;;;;;;4919898;29;20028;-62
2023/06/30 10:23:42;;;;;;;3.13;2.10;;;;;;;;;;4919886;29;20071;-62
2023/06/30 10:26:12;;;;;;;3.40;2.13;;;;;;;;;;4919868;29;20063;-61
2023/06/30 10:28:38;;;;;;;3.60;2.53;;;;;;;;;;4919942;29;20039;-60
2023/06/30 10:31:04;;;;;;;3.00;2.70;;;;;;;;;;4919366;29;20119;-62
2023/06/30 10:33:30;;;;;;;2.53;2.33;;;;;;;;;;4902551;29;20155;-64
2023/06/30 10:35:58;;;;;;;2.67;2.42;;;;;;;;;;4919695;29;20107;-61
2023/06/30 10:38:24;;;;;;;5.13;2.50;;;;;;;;;;4925640;29;20028;-60
2023/06/30 10:40:50;;;;;;;2.53;2.20;;;;;;;;;;4919314;29;20036;-60
2023/06/30 10:43:17;;;;;;;4.40;2.28;;;;;;;;;;4919686;29;20036;-61
2023/06/30 10:46:07;;;;;;;4.13;2.40;;;;;;;;;;4919460;29;20032;-61
2023/06/30 10:48:33;;;;;;;6.72;2.35;;;;;;;;;;4919018;29;20493;-59
2023/06/30 10:50:59;;;;;;;6.82;2.35;;;;;;;;;;4919301;29;20032;-61
2023/06/30 10:53:27;;;;;;;13.50;3.10;;;;;;;;;;4906988;29;20334;-63
2023/06/30 10:55:58;;;;;;;6.10;2.97;;;;;;;;;;4918728;29;20043;-61
2023/06/30 10:58:26;;;;;;;8.45;2.38;;;;;;;;;;4918618;29;20039;-61
2023/06/30 11:01:05;;;;;;;4.63;2.63;;;;;;;;;;4915603;29;20103;-61
2023/06/30 11:03:57;;;;;;;4.97;2.40;;;;;;;;;;4915996;29;20500;-60
2023/06/30 11:06:24;;;;;;;3.85;2.38;;;;;;;;;;4908333;29;20032;-64
2023/06/30 11:09:00;;;;;;;7.90;2.33;;;;;;;;;;4917247;29;20083;-64
2023/06/30 11:11:28;;;;;;;9.75;2.90;;;;;;;;;;4917199;29;20032;-61
2023/06/30 11:14:06;;;;;;;7.57;2.80;;;;;;;;;;4917787;29;20028;-63
2023/06/30 11:17:05;;;;;;;27.48;4.72;;;;;;;;;;4918146;29;20102;-61
2023/06/30 11:19:31;;;;;;;18.48;3.53;;;;;;;;;;4912164;29;20375;-61
2023/06/30 11:22:21;;;;;;;13.77;3.00;;;;;;;;;;4918593;29;20028;-60
2023/06/30 11:24:47;;;;;;;13.05;3.58;;;;;;;;;;4918599;29;20040;-59
2023/06/30 11:27:14;;;;;;;19.38;3.35;;;;;;;;;;4918809;29;20031;-60
2023/06/30 11:29:40;;;;;;;21.00;3.60;;;;;;;;;;4918797;29;20028;-63
2023/06/30 11:32:06;;;;;;;18.17;3.97;;;;;;;;;;4916822;29;20486;-64
2023/06/30 11:34:32;;;;;;;16.75;3.65;;;;;;;;;;4916887;29;20422;-60
2023/06/30 11:36:58;;;;;;;21.98;3.28;;;;;;;;;;4917164;29;20024;-60
2023/06/30 11:39:23;;;;;;;15.15;3.65;;;;;;;;;;4916336;29;20059;-60
2023/06/30 11:41:49;;;;;;;18.20;3.33;;;;;;;;;;4916699;29;20072;-64
2023/06/30 11:44:14;;;;;;;15.30;3.40;;;;;;;;;;4917490;29;20043;-59
2023/06/30 11:46:40;;;;;;;12.95;3.53;;;;;;;;;;4916899;29;20051;-59
2023/06/30 11:49:05;;;;;;;7.85;3.35;;;;;;;;;;4917713;29;20032;-59
2023/06/30 11:51:32;;;;;;;13.07;3.70;;;;;;;;;;4918283;29;20263;-62
2023/06/30 11:53:58;;;;;;;10.57;2.95;;;;;;;;;;4918160;29;20024;-59
2023/06/30 11:56:24;;;;;;;12.88;4.07;;;;;;;;;;4917219;29;20165;-59
2023/06/30 11:58:50;;;;;;;10.10;3.58;;;;;;;;;;4917942;29;20081;-60
2023/06/30 12:01:16;;;;;;;12.90;3.47;;;;;;;;;;4901267;29;20055;-61
2023/06/30 12:03:41;;;;;;;8.20;3.20;;;;;;;;;;4917835;29;20435;-60
2023/06/30 12:06:07;;;;;;;17.38;3.40;;;;;;;;;;4917937;29;20131;-61
2023/06/30 12:08:38;;;;;;;5.53;3.20;;;;;;;;;;4918135;29;20047;-62
2023/06/30 12:11:06;;;;;;;16.55;3.58;;;;;;;;;;4917885;29;20028;-60
2023/06/30 12:13:32;;;;;;;18.58;3.78;;;;;;;;;;4917999;29;20087;-61
2023/06/30 12:15:58;;;;;;;18.27;3.55;;;;;;;;;;4917906;29;20119;-59
2023/06/30 12:18:37;;;;;;;10.40;3.58;;;;;;;;;;4916750;29;20024;-63
2023/06/30 12:21:13;;;;;;;12.60;3.47;;;;;;;;;;4917337;29;20020;-65
2023/06/30 12:23:43;;;;;;;5.65;3.60;;;;;;;;;;4917585;29;20548;-66
2023/06/30 12:26:12;;;;;;;7.80;3.47;;;;;;;;;;4917786;29;20028;-60
2023/06/30 12:28:38;;;;;;;9.55;3.30;;;;;;;;;;4917816;29;20032;-59
2023/06/30 12:31:04;;;;;;;7.70;3.30;;;;;;;;;;4917329;29;20020;-59
2023/06/30 12:33:29;;;;;;;12.88;3.45;;;;;;;;;;4917536;29;20084;-60
2023/06/30 12:35:55;;;;;;;11.75;3.20;;;;;;;;;;4917486;29;20488;-60
2023/06/30 12:38:20;;;;;;;8.55;3.13;;;;;;;;;;4900297;29;20496;-62
2023/06/30 12:40:46;;;;;;;10.98;3.00;;;;;;;;;;4917331;29;20600;-61
2023/06/30 12:43:12;;;;;;;8.98;3.40;;;;;;;;;;4917533;29;20024;-59
2023/06/30 12:45:37;;;;;;;10.63;3.72;;;;;;;;;;4917425;29;20099;-60
2023/06/30 12:48:03;;;;;;;8.35;3.50;;;;;;;;;;4916951;29;20410;-59
2023/06/30 12:50:29;;;;;;;9.20;3.22;;;;;;;;;;4917227;29;20442;-59
2023/06/30 12:52:56;;;;;;;5.32;3.40;;;;;;;;;;4916980;29;20390;-59
2023/06/30 12:55:22;;;;;;;8.15;3.45;;;;;;;;;;4916894;29;20114;-59
2023/06/30 12:57:48;;;;;;;12.15;3.30;;;;;;;;;;4917285;29;20139;-59
2023/06/30 13:00:15;;;;;;;6.90;3.40;;;;;;;;;;4916813;29;20034;-60
2023/06/30 13:02:40;;;;;;;7.90;3.78;;;;;;;;;;4916027;29;20040;-61
2023/06/30 13:05:06;;;;;;;7.43;3.42;;;;;;;;;;4917008;29;20032;-59
2023/06/30 13:07:32;;;;;;;7.05;2.92;;;;;;;;;;4916730;29;20032;-59
2023/06/30 13:10:02;;;;;;;9.32;3.47;;;;;;;;;;4916502;29;20028;-63
2023/06/30 13:12:29;;;;;;;5.72;2.95;;;;;;;;;;4915960;29;20024;-68
2023/06/30 13:14:59;;;;;;;7.95;3.20;;;;;;;;;;4916183;29;20032;-59
2023/06/30 13:17:25;;;;;;;6.28;3.13;;;;;;;;;;4916937;29;20031;-59
2023/06/30 13:19:51;;;;;;;4.65;2.97;;;;;;;;;;4916768;29;20055;-63
2023/06/30 13:22:17;;;;;;;6.95;3.38;;;;;;;;;;4916648;29;20107;-62
2023/06/30 13:24:46;;;;;;;6.35;3.38;;;;;;;;;;4916445;29;20111;-65
2023/06/30 13:27:11;;;;;;;6.63;3.47;;;;;;;;;;4916578;29;20028;-62
2023/06/30 13:29:51;;;;;;;4.15;3.00;;;;;;;;;;4916420;29;20263;-64
2023/06/30 13:32:17;;;;;;;9.40;3.53;;;;;;;;;;4916352;29;20036;-59
2023/06/30 13:34:44;;;;;;;8.60;3.13;;;;;;;;;;4915587;29;20474;-59
2023/06/30 13:37:09;;;;;;;9.70;3.33;;;;;;;;;;4914972;29;20040;-59
2023/06/30 13:39:36;;;;;;;9.35;3.30;;;;;;;;;;4916124;29;20028;-59
2023/06/30 13:42:02;;;;;;;10.65;3.38;;;;;;;;;;4915841;29;20192;-60
2023/06/30 13:44:32;;;;;;;9.02;3.35;;;;;;;;;;4916205;29;20043;-59
2023/06/30 13:46:57;;;;;;;6.25;2.70;;;;;;;;;;4913643;29;21132;-59
2023/06/30 13:49:23;;;;;;;6.68;3.10;;;;;;;;;;4915849;29;20036;-59
2023/06/30 13:51:49;;;;;;;6.05;3.00;;;;;;;;;;4916076;29;20060;-59
2023/06/30 13:54:15;;;;;;;6.07;3.20;;;;;;;;;;4916096;29;20028;-59
2023/06/30 13:56:40;;;;;;;7.00;3.20;;;;;;;;;;4915956;29;20040;-60
2023/06/30 13:59:06;;;;;;;6.97;3.05;;;;;;;;;;4899602;29;20024;-61
2023/06/30 14:01:31;;;;;;;8.95;3.67;;;;;;;;;;4916235;29;20032;-59
2023/06/30 14:03:57;;;;;;;7.95;3.33;;;;;;;;;;4914781;29;20520;-60
2023/06/30 14:06:22;;;;;;;12.15;3.17;;;;;;;;;;4914825;29;20032;-60
2023/06/30 14:08:48;;;;;;;7.25;3.30;;;;;;;;;;4916216;29;20024;-59
2023/06/30 14:11:15;;;;;;;12.57;3.55;;;;;;;;;;4916273;29;20060;-60
2023/06/30 14:13:41;;;;;;;8.32;3.75;;;;;;;;;;4916132;29;20024;-59
2023/06/30 14:16:07;;;;;;;76.78;5.78;;;;;;;;;;4916087;29;20063;-59
2023/06/30 14:18:32;;;;;;;63.20;6.28;;;;;;;;;;4916047;29;20473;-59
2023/06/30 14:20:58;;;;;;;46.75;5.50;;;;;;;;;;4916214;29;20107;-59
2023/06/30 14:23:23;;;;;;;17.17;4.03;;;;;;;;;;4916044;29;20035;-65
2023/06/30 14:25:49;;;;;;;47.47;5.40;;;;;;;;;;4916039;29;20024;-64
2023/06/30 14:28:14;;;;;;;31.65;4.43;;;;;;;;;;4916290;29;20473;-62
2023/06/30 14:30:40;;;;;;;42.92;4.18;;;;;;;;;;4916036;29;20560;-60
2023/06/30 14:33:05;;;;;;;45.45;5.07;;;;;;;;;;4915799;29;20025;-60
2023/06/30 14:35:31;;;;;;;39.10;4.97;;;;;;;;;;4915890;29;20028;-62
2023/06/30 14:37:57;;;;;;;40.85;5.47;;;;;;;;;;4914688;29;20577;-58
2023/06/30 14:40:24;;;;;;;55.78;5.70;;;;;;;;;;4918867;29;20034;-56